Saturday, October 25, 2014
07:52 UTC
  |  Log In   |  Register Free
Airport Search:

Northeast Philadelphia Airport
(KPNE)

FAA data valid effective September 18, 2014 - November 13, 2014 (unless otherwise noted).

 
 
 
 
 
 
 
 
 
 
 
 
 
 

Current Aviation Weather for Northeast Philadelphia Airport (KPNE)

The most recent METAR observation for KPNE was updated at: 0712
METAR Summary (Translated METAR)
KPNE
250654Z 34006KT 10SM CLR 10/01 A2991 RMK AO2 SLP126 T01000011
KVAY
250654Z AUTO 19003KT 10SM CLR 08/03 A2989 RMK AO2 SLP122 T00780033
(11.3 nm SE from KPNE)
KLOM
250655Z AUTO 00000KT 10SM CLR 08/03 A2990 RMK AO1
(12.2 nm NW from KPNE)
TAF Summary (Translated TAF)
KPNE
250540Z 2506/2606 31008KT P6SM SCT200 FM251600 27010G18KT P6SM FEW040 FM252300 22006KT P6SM SCT050 FM260300 28010KT P6SM BKN050
  Airport Weather Conditions for KPNE

 Current Weather at PNE
50° F
Fair
North winds at 6.9 mph
PNE NOAA Radar

Pressure: 29.91 in
Humidity: 54%
Wind: North at 6.9 MPH (6 KT)
Dew Point: 34.0°F
Visibility: 10.00 mi


Airport Weather Forecast for KPNE

Translated METAR and TAF for KPNE
Translated METAR for KPNE (0747 UTC 25 October 2014)
found at http://aviationweather.gov/adds/metars/
 
METAR text: KPNE 250654Z 34006KT 10SM CLR 10/01 A2991 RMK AO2 SLP126 T01000011
Conditions at: KPNE (PHILADELPHIA/NE , PA, US) observed 0654 UTC 25 October 2014
Temperature: 10.0°C (50°F)
Dewpoint: 1.1°C (34°F) [RH = 54%]
Pressure (altimeter): 29.91 inches Hg (1013.0 mb)
[Sea-level pressure: 1012.6 mb]
Winds: from the NNW (340 degrees) at 7 MPH (6 knots; 3.1 m/s)
Visibility: 10 or more miles (16+ km)
Ceiling: at least 12,000 feet AGL
Clouds: sky clear below 12,000 feet AGL
Weather: no significant weather observed at this time
Translated TAF for KPNE
Forecast for: KPNE (PHILADELPHIA/NE , PA, US)
TAF Text: KPNE 250540Z 2506/2606 31008KT P6SM SCT200
Forecast period: 0600 to 1600 UTC 25 October 2014
Forecast type: FROM: standard forecast or significant change
Winds: from the NW (310 degrees) at 9 MPH (8 knots; 4.2 m/s)
Visibility: 6 or more miles (10+ km)
Clouds: scattered clouds at 20000 feet AGL
Weather: no significant weather forecast for this period
TAF Text: FM251600 27010G18KT P6SM FEW040
Forecast period: 1600 to 2300 UTC 25 October 2014
Forecast type: FROM: standard forecast or significant change
Winds: from the W (270 degrees) at 12 MPH (10 knots; 5.2 m/s)
gusting to 21 MPH (18 knots; 9.4 m/s)
Visibility: 6 or more miles (10+ km)
Clouds: few clouds at 4000 feet AGL
Weather: no significant weather forecast for this period
TAF Text: FM252300 22006KT P6SM SCT050
Forecast period: 2300 UTC 25 October 2014 to 0300 UTC 26 October 2014
Forecast type: FROM: standard forecast or significant change
Winds: from the SW (220 degrees) at 7 MPH (6 knots; 3.1 m/s)
Visibility: 6 or more miles (10+ km)
Clouds: scattered clouds at 5000 feet AGL
Weather: no significant weather forecast for this period
TAF Text: FM260300 28010KT P6SM BKN050
Forecast period: 0300 to 0600 UTC 26 October 2014
Forecast type: FROM: standard forecast or significant change
Winds: from the W (280 degrees) at 12 MPH (10 knots; 5.2 m/s)
Visibility: 6 or more miles (10+ km)
Ceiling: 5000 feet AGL
Clouds: broken clouds at 5000 feet AGL
Weather: no significant weather forecast for this period

Find All Airport Services Find A Hotel Find A Rental Car Find A Golf Course Find A Restaurant $100 Hamburger



FBO's on the Field
FBO Company Facility Photos Services Transportation Aviation Fuel Prices: Prices include tax
Catering Weather Repair Courtesy Rental Type 100LL JetA JetA+ MOGAS 8087
 
Atlantic Aviation

This FBO has not yet been rated
FS:Texaco
Last Updated: Oct-24
Login to update fuel prices
SS:
Contact Atlantic AviationMore FBO Information
 
North Philadelphia Jet Center

Currently rated 5 by 2 people
FS:Avfuel
Last Updated: Oct-21
Login to update fuel prices
SS:
Contact North Philadelphia Jet CenterMore FBO Information
 
Add another FBO Facility Photos Catering Weather Repair Courtesy Rental Type 100LL JetA JetA+ MOGAS 8087
Services Transportation Aviation Fuel Prices: Prices include tax


model-print
model-print
model-print
model-print